sensor_id;sensor_type;location;lat;lon;timestamp;P1;durP1;ratioP1;P2;durP2;ratioP2
65636;SDS011;52327;42.622;23.316;2022-07-01T00:00:46;3.92;;;2.08;;
65636;SDS011;52327;42.622;23.316;2022-07-01T00:03:12;3.10;;;1.83;;
65636;SDS011;52327;42.622;23.316;2022-07-01T00:05:37;2.42;;;1.60;;
65636;SDS011;52327;42.622;23.316;2022-07-01T00:08:03;3.30;;;2.17;;
65636;SDS011;52327;42.622;23.316;2022-07-01T00:10:28;3.00;;;1.90;;
65636;SDS011;52327;42.622;23.316;2022-07-01T00:12:54;2.60;;;2.08;;
65636;SDS011;52327;42.622;23.316;2022-07-01T00:15:19;2.67;;;2.00;;
65636;SDS011;52327;42.622;23.316;2022-07-01T00:17:45;2.83;;;2.00;;
65636;SDS011;52327;42.622;23.316;2022-07-01T00:20:10;2.22;;;1.92;;
65636;SDS011;52327;42.622;23.316;2022-07-01T00:22:36;3.55;;;2.22;;
65636;SDS011;52327;42.622;23.316;2022-07-01T00:25:02;4.63;;;2.13;;
65636;SDS011;52327;42.622;23.316;2022-07-01T00:27:28;4.35;;;2.38;;
65636;SDS011;52327;42.622;23.316;2022-07-01T00:29:53;2.63;;;2.30;;
65636;SDS011;52327;42.622;23.316;2022-07-01T00:32:19;2.95;;;2.05;;
65636;SDS011;52327;42.622;23.316;2022-07-01T00:34:44;4.90;;;2.40;;
65636;SDS011;52327;42.622;23.316;2022-07-01T00:37:09;4.15;;;2.40;;
65636;SDS011;52327;42.622;23.316;2022-07-01T00:39:35;7.18;;;2.50;;
65636;SDS011;52327;42.622;23.316;2022-07-01T00:42:02;2.63;;;2.35;;
65636;SDS011;52327;42.622;23.316;2022-07-01T00:44:29;3.83;;;2.60;;
65636;SDS011;52327;42.622;23.316;2022-07-01T00:46:55;2.55;;;2.35;;
65636;SDS011;52327;42.622;23.316;2022-07-01T00:49:22;3.15;;;2.60;;
65636;SDS011;52327;42.622;23.316;2022-07-01T00:51:48;3.33;;;2.50;;
65636;SDS011;52327;42.622;23.316;2022-07-01T00:54:14;3.53;;;3.00;;
65636;SDS011;52327;42.622;23.316;2022-07-01T00:56:41;2.67;;;2.47;;
65636;SDS011;52327;42.622;23.316;2022-07-01T00:59:06;4.50;;;2.65;;
65636;SDS011;52327;42.622;23.316;2022-07-01T01:01:32;4.70;;;3.10;;
65636;SDS011;52327;42.622;23.316;2022-07-01T01:03:58;3.25;;;2.60;;
65636;SDS011;52327;42.622;23.316;2022-07-01T01:06:23;4.07;;;2.58;;
65636;SDS011;52327;42.622;23.316;2022-07-01T01:08:49;3.58;;;2.83;;
65636;SDS011;52327;42.622;23.316;2022-07-01T01:11:15;4.68;;;3.08;;
65636;SDS011;52327;42.622;23.316;2022-07-01T01:13:41;3.13;;;2.75;;
65636;SDS011;52327;42.622;23.316;2022-07-01T01:16:07;3.15;;;2.78;;
65636;SDS011;52327;42.622;23.316;2022-07-01T01:18:33;3.38;;;3.00;;
65636;SDS011;52327;42.622;23.316;2022-07-01T01:21:00;3.03;;;2.72;;
65636;SDS011;52327;42.622;23.316;2022-07-01T01:23:27;4.05;;;2.70;;
65636;SDS011;52327;42.622;23.316;2022-07-01T01:25:52;4.63;;;3.08;;
65636;SDS011;52327;42.622;23.316;2022-07-01T01:28:18;3.47;;;2.92;;
65636;SDS011;52327;42.622;23.316;2022-07-01T01:30:43;3.30;;;2.90;;
65636;SDS011;52327;42.622;23.316;2022-07-01T01:33:08;5.18;;;2.85;;
65636;SDS011;52327;42.622;23.316;2022-07-01T01:35:36;3.17;;;2.70;;
65636;SDS011;52327;42.622;23.316;2022-07-01T01:38:02;4.07;;;2.83;;
65636;SDS011;52327;42.622;23.316;2022-07-01T01:40:27;3.15;;;2.60;;
65636;SDS011;52327;42.622;23.316;2022-07-01T01:42:53;3.22;;;2.80;;
65636;SDS011;52327;42.622;23.316;2022-07-01T01:45:18;4.00;;;2.80;;
65636;SDS011;52327;42.622;23.316;2022-07-01T01:47:44;2.63;;;2.42;;
65636;SDS011;52327;42.622;23.316;2022-07-01T01:50:10;3.35;;;2.80;;
65636;SDS011;52327;42.622;23.316;2022-07-01T01:52:37;3.03;;;2.60;;
65636;SDS011;52327;42.622;23.316;2022-07-01T01:55:03;5.30;;;2.85;;
65636;SDS011;52327;42.622;23.316;2022-07-01T01:57:29;3.08;;;2.42;;
65636;SDS011;52327;42.622;23.316;2022-07-01T01:59:55;2.65;;;2.40;;
65636;SDS011;52327;42.622;23.316;2022-07-01T02:02:20;6.78;;;2.70;;
65636;SDS011;52327;42.622;23.316;2022-07-01T02:04:46;3.13;;;2.70;;
65636;SDS011;52327;42.622;23.316;2022-07-01T02:07:12;2.67;;;2.28;;
65636;SDS011;52327;42.622;23.316;2022-07-01T02:09:37;4.20;;;2.42;;
65636;SDS011;52327;42.622;23.316;2022-07-01T02:12:02;3.35;;;2.25;;
65636;SDS011;52327;42.622;23.316;2022-07-01T02:14:29;2.80;;;2.45;;
65636;SDS011;52327;42.622;23.316;2022-07-01T02:16:54;2.95;;;2.65;;
65636;SDS011;52327;42.622;23.316;2022-07-01T02:19:20;2.90;;;2.50;;
65636;SDS011;52327;42.622;23.316;2022-07-01T02:21:45;3.42;;;2.58;;
65636;SDS011;52327;42.622;23.316;2022-07-01T02:24:11;3.60;;;2.50;;
65636;SDS011;52327;42.622;23.316;2022-07-01T02:26:36;3.83;;;2.90;;
65636;SDS011;52327;42.622;23.316;2022-07-01T02:29:02;4.40;;;2.83;;
65636;SDS011;52327;42.622;23.316;2022-07-01T02:31:28;5.15;;;2.75;;
65636;SDS011;52327;42.622;23.316;2022-07-01T02:33:53;3.58;;;2.75;;
65636;SDS011;52327;42.622;23.316;2022-07-01T02:36:20;3.13;;;2.70;;
65636;SDS011;52327;42.622;23.316;2022-07-01T02:38:45;3.60;;;2.65;;
65636;SDS011;52327;42.622;23.316;2022-07-01T02:41:10;3.60;;;2.58;;
65636;SDS011;52327;42.622;23.316;2022-07-01T02:43:36;4.05;;;2.45;;
65636;SDS011;52327;42.622;23.316;2022-07-01T02:46:01;3.90;;;2.60;;
65636;SDS011;52327;42.622;23.316;2022-07-01T02:48:27;3.90;;;2.88;;
65636;SDS011;52327;42.622;23.316;2022-07-01T02:50:54;3.58;;;2.80;;
65636;SDS011;52327;42.622;23.316;2022-07-01T02:53:19;3.08;;;2.50;;
65636;SDS011;52327;42.622;23.316;2022-07-01T02:55:44;2.63;;;2.38;;
65636;SDS011;52327;42.622;23.316;2022-07-01T02:58:10;3.97;;;2.63;;
65636;SDS011;52327;42.622;23.316;2022-07-01T03:00:35;4.68;;;2.85;;
65636;SDS011;52327;42.622;23.316;2022-07-01T03:03:02;2.85;;;2.55;;
65636;SDS011;52327;42.622;23.316;2022-07-01T03:05:28;4.00;;;2.85;;
65636;SDS011;52327;42.622;23.316;2022-07-01T03:07:53;2.80;;;2.60;;
65636;SDS011;52327;42.622;23.316;2022-07-01T03:10:19;3.38;;;2.75;;
65636;SDS011;52327;42.622;23.316;2022-07-01T03:12:44;3.50;;;2.63;;
65636;SDS011;52327;42.622;23.316;2022-07-01T03:15:10;3.30;;;2.60;;
65636;SDS011;52327;42.622;23.316;2022-07-01T03:17:38;3.58;;;2.75;;
65636;SDS011;52327;42.622;23.316;2022-07-01T03:20:05;4.28;;;3.08;;
65636;SDS011;52327;42.622;23.316;2022-07-01T03:22:32;3.85;;;2.78;;
65636;SDS011;52327;42.622;23.316;2022-07-01T03:24:58;3.30;;;2.45;;
65636;SDS011;52327;42.622;23.316;2022-07-01T03:27:25;4.18;;;2.65;;
65636;SDS011;52327;42.622;23.316;2022-07-01T03:29:51;3.75;;;2.65;;
65636;SDS011;52327;42.622;23.316;2022-07-01T03:32:17;2.63;;;2.20;;
65636;SDS011;52327;42.622;23.316;2022-07-01T03:34:44;2.85;;;2.55;;
65636;SDS011;52327;42.622;23.316;2022-07-01T03:37:11;3.80;;;2.60;;
65636;SDS011;52327;42.622;23.316;2022-07-01T03:39:39;4.22;;;2.90;;
65636;SDS011;52327;42.622;23.316;2022-07-01T03:42:05;3.53;;;2.60;;
65636;SDS011;52327;42.622;23.316;2022-07-01T03:44:33;3.53;;;2.75;;
65636;SDS011;52327;42.622;23.316;2022-07-01T03:46:58;3.05;;;2.72;;
65636;SDS011;52327;42.622;23.316;2022-07-01T03:49:24;3.75;;;2.67;;
65636;SDS011;52327;42.622;23.316;2022-07-01T03:51:50;3.83;;;2.50;;
65636;SDS011;52327;42.622;23.316;2022-07-01T03:54:16;3.58;;;2.63;;
65636;SDS011;52327;42.622;23.316;2022-07-01T03:57:04;2.80;;;2.58;;
65636;SDS011;52327;42.622;23.316;2022-07-01T03:59:39;3.88;;;2.50;;
65636;SDS011;52327;42.622;23.316;2022-07-01T04:02:05;2.78;;;2.58;;
65636;SDS011;52327;42.622;23.316;2022-07-01T04:04:32;3.17;;;2.60;;
65636;SDS011;52327;42.622;23.316;2022-07-01T04:06:58;4.50;;;2.50;;
65636;SDS011;52327;42.622;23.316;2022-07-01T04:09:25;4.35;;;2.83;;
65636;SDS011;52327;42.622;23.316;2022-07-01T04:11:53;3.97;;;3.10;;
65636;SDS011;52327;42.622;23.316;2022-07-01T04:14:18;4.00;;;3.10;;
65636;SDS011;52327;42.622;23.316;2022-07-01T04:16:44;3.67;;;2.95;;
65636;SDS011;52327;42.622;23.316;2022-07-01T04:19:10;5.43;;;3.05;;
65636;SDS011;52327;42.622;23.316;2022-07-01T04:21:38;3.42;;;2.92;;
65636;SDS011;52327;42.622;23.316;2022-07-01T04:24:22;6.63;;;3.00;;
65636;SDS011;52327;42.622;23.316;2022-07-01T04:26:50;3.58;;;3.03;;
65636;SDS011;52327;42.622;23.316;2022-07-01T04:29:17;3.83;;;3.17;;
65636;SDS011;52327;42.622;23.316;2022-07-01T04:31:42;3.83;;;2.85;;
65636;SDS011;52327;42.622;23.316;2022-07-01T04:34:08;4.15;;;2.90;;
65636;SDS011;52327;42.622;23.316;2022-07-01T04:36:34;5.35;;;2.70;;
65636;SDS011;52327;42.622;23.316;2022-07-01T04:39:00;3.33;;;3.03;;
65636;SDS011;52327;42.622;23.316;2022-07-01T04:41:26;6.05;;;2.95;;
65636;SDS011;52327;42.622;23.316;2022-07-01T04:44:10;4.47;;;3.00;;
65636;SDS011;52327;42.622;23.316;2022-07-01T04:46:35;3.60;;;2.58;;
65636;SDS011;52327;42.622;23.316;2022-07-01T04:49:01;3.22;;;2.85;;
65636;SDS011;52327;42.622;23.316;2022-07-01T04:51:26;2.67;;;2.42;;
65636;SDS011;52327;42.622;23.316;2022-07-01T04:53:52;6.10;;;2.90;;
65636;SDS011;52327;42.622;23.316;2022-07-01T04:56:18;5.68;;;2.90;;
65636;SDS011;52327;42.622;23.316;2022-07-01T04:58:43;5.15;;;2.95;;
65636;SDS011;52327;42.622;23.316;2022-07-01T05:01:09;3.25;;;2.70;;
65636;SDS011;52327;42.622;23.316;2022-07-01T05:03:34;3.80;;;2.75;;
65636;SDS011;52327;42.622;23.316;2022-07-01T05:06:00;6.18;;;3.20;;
65636;SDS011;52327;42.622;23.316;2022-07-01T05:08:25;2.88;;;2.60;;
65636;SDS011;52327;42.622;23.316;2022-07-01T05:10:50;5.20;;;2.92;;
65636;SDS011;52327;42.622;23.316;2022-07-01T05:13:16;4.10;;;2.65;;
65636;SDS011;52327;42.622;23.316;2022-07-01T05:15:42;4.60;;;3.00;;
65636;SDS011;52327;42.622;23.316;2022-07-01T05:18:07;4.43;;;2.67;;
65636;SDS011;52327;42.622;23.316;2022-07-01T05:20:51;13.27;;;12.07;;
65636;SDS011;52327;42.622;23.316;2022-07-01T05:23:35;7.07;;;3.45;;
65636;SDS011;52327;42.622;23.316;2022-07-01T05:26:01;6.38;;;3.88;;
65636;SDS011;52327;42.622;23.316;2022-07-01T05:28:27;4.15;;;3.03;;
65636;SDS011;52327;42.622;23.316;2022-07-01T05:30:52;4.60;;;3.50;;
65636;SDS011;52327;42.622;23.316;2022-07-01T05:33:18;5.13;;;3.13;;
65636;SDS011;52327;42.622;23.316;2022-07-01T05:35:46;5.05;;;3.42;;
65636;SDS011;52327;42.622;23.316;2022-07-01T05:38:12;4.07;;;3.30;;
65636;SDS011;52327;42.622;23.316;2022-07-01T05:40:37;5.53;;;3.30;;
65636;SDS011;52327;42.622;23.316;2022-07-01T05:43:02;6.13;;;3.47;;
65636;SDS011;52327;42.622;23.316;2022-07-01T05:45:28;5.80;;;3.83;;
65636;SDS011;52327;42.622;23.316;2022-07-01T05:47:53;5.82;;;4.00;;
65636;SDS011;52327;42.622;23.316;2022-07-01T05:50:19;6.70;;;4.80;;
65636;SDS011;52327;42.622;23.316;2022-07-01T05:52:45;7.18;;;4.00;;
65636;SDS011;52327;42.622;23.316;2022-07-01T05:55:11;8.20;;;4.50;;
65636;SDS011;52327;42.622;23.316;2022-07-01T05:57:36;7.18;;;4.40;;
65636;SDS011;52327;42.622;23.316;2022-07-01T06:00:03;5.90;;;3.58;;
65636;SDS011;52327;42.622;23.316;2022-07-01T06:02:29;7.85;;;5.07;;
65636;SDS011;52327;42.622;23.316;2022-07-01T06:04:54;7.45;;;4.03;;
65636;SDS011;52327;42.622;23.316;2022-07-01T06:07:20;7.30;;;3.95;;
65636;SDS011;52327;42.622;23.316;2022-07-01T06:09:45;6.35;;;4.43;;
65636;SDS011;52327;42.622;23.316;2022-07-01T06:12:11;7.22;;;3.88;;
65636;SDS011;52327;42.622;23.316;2022-07-01T06:14:36;6.18;;;3.47;;
65636;SDS011;52327;42.622;23.316;2022-07-01T06:17:03;4.60;;;3.22;;
65636;SDS011;52327;42.622;23.316;2022-07-01T06:19:29;6.63;;;4.30;;
65636;SDS011;52327;42.622;23.316;2022-07-01T06:21:54;8.00;;;4.25;;
65636;SDS011;52327;42.622;23.316;2022-07-01T06:24:21;3.53;;;3.22;;
65636;SDS011;52327;42.622;23.316;2022-07-01T06:26:47;6.22;;;3.60;;
65636;SDS011;52327;42.622;23.316;2022-07-01T06:29:13;7.30;;;4.10;;
65636;SDS011;52327;42.622;23.316;2022-07-01T06:31:38;8.82;;;3.90;;
65636;SDS011;52327;42.622;23.316;2022-07-01T06:34:04;7.10;;;4.57;;
65636;SDS011;52327;42.622;23.316;2022-07-01T06:36:29;7.38;;;3.80;;
65636;SDS011;52327;42.622;23.316;2022-07-01T06:38:55;7.55;;;4.20;;
65636;SDS011;52327;42.622;23.316;2022-07-01T06:41:20;6.25;;;3.58;;
65636;SDS011;52327;42.622;23.316;2022-07-01T06:43:51;4.75;;;3.80;;
65636;SDS011;52327;42.622;23.316;2022-07-01T06:46:18;5.47;;;3.78;;
65636;SDS011;52327;42.622;23.316;2022-07-01T06:48:44;9.63;;;4.10;;
65636;SDS011;52327;42.622;23.316;2022-07-01T06:51:10;7.85;;;3.92;;
65636;SDS011;52327;42.622;23.316;2022-07-01T06:53:35;6.10;;;4.03;;
65636;SDS011;52327;42.622;23.316;2022-07-01T06:56:01;6.43;;;3.90;;
65636;SDS011;52327;42.622;23.316;2022-07-01T06:58:26;6.38;;;3.72;;
65636;SDS011;52327;42.622;23.316;2022-07-01T07:00:52;5.57;;;3.90;;
65636;SDS011;52327;42.622;23.316;2022-07-01T07:03:17;5.45;;;3.60;;
65636;SDS011;52327;42.622;23.316;2022-07-01T07:05:43;5.18;;;3.45;;
65636;SDS011;52327;42.622;23.316;2022-07-01T07:08:08;6.22;;;4.00;;
65636;SDS011;52327;42.622;23.316;2022-07-01T07:10:34;5.38;;;3.45;;
65636;SDS011;52327;42.622;23.316;2022-07-01T07:12:59;7.20;;;3.88;;
65636;SDS011;52327;42.622;23.316;2022-07-01T07:15:25;7.03;;;3.90;;
65636;SDS011;52327;42.622;23.316;2022-07-01T07:17:50;6.30;;;4.20;;
65636;SDS011;52327;42.622;23.316;2022-07-01T07:20:15;7.53;;;4.03;;
65636;SDS011;52327;42.622;23.316;2022-07-01T07:22:42;5.57;;;3.72;;
65636;SDS011;52327;42.622;23.316;2022-07-01T07:25:07;6.00;;;3.85;;
65636;SDS011;52327;42.622;23.316;2022-07-01T07:27:33;8.07;;;3.97;;
65636;SDS011;52327;42.622;23.316;2022-07-01T07:29:58;7.47;;;4.75;;
65636;SDS011;52327;42.622;23.316;2022-07-01T07:32:24;6.88;;;3.65;;
65636;SDS011;52327;42.622;23.316;2022-07-01T07:34:49;7.55;;;3.63;;
65636;SDS011;52327;42.622;23.316;2022-07-01T07:37:15;6.22;;;3.60;;
65636;SDS011;52327;42.622;23.316;2022-07-01T07:39:40;4.50;;;3.28;;
65636;SDS011;52327;42.622;23.316;2022-07-01T07:42:06;6.18;;;3.83;;
65636;SDS011;52327;42.622;23.316;2022-07-01T07:44:31;8.35;;;4.20;;
65636;SDS011;52327;42.622;23.316;2022-07-01T07:46:57;4.50;;;3.88;;
65636;SDS011;52327;42.622;23.316;2022-07-01T07:49:23;6.82;;;4.47;;
65636;SDS011;52327;42.622;23.316;2022-07-01T07:51:49;6.90;;;4.03;;
65636;SDS011;52327;42.622;23.316;2022-07-01T07:54:15;7.43;;;4.38;;
65636;SDS011;52327;42.622;23.316;2022-07-01T07:56:41;6.22;;;4.43;;
65636;SDS011;52327;42.622;23.316;2022-07-01T07:59:07;5.22;;;4.18;;
65636;SDS011;52327;42.622;23.316;2022-07-01T08:01:32;4.85;;;4.28;;
65636;SDS011;52327;42.622;23.316;2022-07-01T08:03:58;5.65;;;3.90;;
65636;SDS011;52327;42.622;23.316;2022-07-01T08:06:23;5.40;;;4.10;;
65636;SDS011;52327;42.622;23.316;2022-07-01T08:08:48;6.97;;;4.25;;
65636;SDS011;52327;42.622;23.316;2022-07-01T08:11:14;6.78;;;4.90;;
65636;SDS011;52327;42.622;23.316;2022-07-01T08:13:39;6.30;;;4.63;;
65636;SDS011;52327;42.622;23.316;2022-07-01T08:16:05;6.95;;;4.32;;
65636;SDS011;52327;42.622;23.316;2022-07-01T08:18:31;5.65;;;4.10;;
65636;SDS011;52327;42.622;23.316;2022-07-01T08:20:56;6.05;;;4.10;;
65636;SDS011;52327;42.622;23.316;2022-07-01T08:23:22;6.30;;;4.20;;
65636;SDS011;52327;42.622;23.316;2022-07-01T08:25:48;5.95;;;4.32;;
65636;SDS011;52327;42.622;23.316;2022-07-01T08:28:14;6.30;;;4.20;;
65636;SDS011;52327;42.622;23.316;2022-07-01T08:30:40;6.60;;;4.18;;
65636;SDS011;52327;42.622;23.316;2022-07-01T08:33:06;5.75;;;4.10;;
65636;SDS011;52327;42.622;23.316;2022-07-01T08:35:31;8.63;;;4.55;;
65636;SDS011;52327;42.622;23.316;2022-07-01T08:37:56;6.57;;;4.18;;
65636;SDS011;52327;42.622;23.316;2022-07-01T08:40:29;5.97;;;3.88;;
65636;SDS011;52327;42.622;23.316;2022-07-01T08:42:59;5.75;;;3.40;;
65636;SDS011;52327;42.622;23.316;2022-07-01T08:45:26;5.70;;;3.60;;
65636;SDS011;52327;42.622;23.316;2022-07-01T08:50:31;7.18;;;3.28;;
65636;SDS011;52327;42.622;23.316;2022-07-01T08:53:01;6.95;;;3.47;;
65636;SDS011;52327;42.622;23.316;2022-07-01T08:55:27;5.25;;;3.63;;
65636;SDS011;52327;42.622;23.316;2022-07-01T08:57:53;6.72;;;4.28;;
65636;SDS011;52327;42.622;23.316;2022-07-01T09:00:19;8.32;;;3.75;;
65636;SDS011;52327;42.622;23.316;2022-07-01T09:02:49;5.35;;;3.78;;
65636;SDS011;52327;42.622;23.316;2022-07-01T09:05:22;4.53;;;3.30;;
65636;SDS011;52327;42.622;23.316;2022-07-01T09:07:49;3.92;;;3.30;;
65636;SDS011;52327;42.622;23.316;2022-07-01T09:10:20;9.00;;;3.50;;
65636;SDS011;52327;42.622;23.316;2022-07-01T09:12:46;4.47;;;2.78;;
65636;SDS011;52327;42.622;23.316;2022-07-01T09:15:28;3.75;;;2.60;;
65636;SDS011;52327;42.622;23.316;2022-07-01T09:17:57;4.25;;;2.97;;
65636;SDS011;52327;42.622;23.316;2022-07-01T09:20:37;3.13;;;2.60;;
65636;SDS011;52327;42.622;23.316;2022-07-01T09:25:46;3.55;;;2.58;;
65636;SDS011;52327;42.622;23.316;2022-07-01T09:28:13;3.40;;;2.30;;
65636;SDS011;52327;42.622;23.316;2022-07-01T09:30:46;4.50;;;2.60;;
65636;SDS011;52327;42.622;23.316;2022-07-01T09:33:16;4.47;;;3.00;;
65636;SDS011;52327;42.622;23.316;2022-07-01T09:35:43;3.67;;;3.37;;
65636;SDS011;52327;42.622;23.316;2022-07-01T09:38:12;3.72;;;2.88;;
65636;SDS011;52327;42.622;23.316;2022-07-01T09:40:57;3.38;;;2.50;;
65636;SDS011;52327;42.622;23.316;2022-07-01T09:43:25;5.53;;;2.85;;
65636;SDS011;52327;42.622;23.316;2022-07-01T09:45:53;3.75;;;3.10;;
65636;SDS011;52327;42.622;23.316;2022-07-01T09:48:18;4.55;;;2.80;;
65636;SDS011;52327;42.622;23.316;2022-07-01T09:50:45;4.68;;;3.10;;
65636;SDS011;52327;42.622;23.316;2022-07-01T09:53:11;4.10;;;3.03;;
65636;SDS011;52327;42.622;23.316;2022-07-01T09:55:38;5.57;;;2.83;;
65636;SDS011;52327;42.622;23.316;2022-07-01T09:58:04;4.40;;;3.00;;
65636;SDS011;52327;42.622;23.316;2022-07-01T10:00:30;3.80;;;2.35;;
65636;SDS011;52327;42.622;23.316;2022-07-01T10:03:02;4.40;;;2.90;;
65636;SDS011;52327;42.622;23.316;2022-07-01T10:05:30;3.78;;;2.50;;
65636;SDS011;52327;42.622;23.316;2022-07-01T10:08:10;3.72;;;2.28;;
65636;SDS011;52327;42.622;23.316;2022-07-01T10:13:27;3.22;;;1.85;;
65636;SDS011;52327;42.622;23.316;2022-07-01T10:15:58;3.17;;;2.00;;
65636;SDS011;52327;42.622;23.316;2022-07-01T10:18:26;2.92;;;2.00;;
65636;SDS011;52327;42.622;23.316;2022-07-01T10:20:53;2.60;;;2.25;;
65636;SDS011;52327;42.622;23.316;2022-07-01T10:23:21;3.03;;;2.38;;
65636;SDS011;52327;42.622;23.316;2022-07-01T10:25:49;4.03;;;2.40;;
65636;SDS011;52327;42.622;23.316;2022-07-01T10:36:02;1.90;;;1.48;;
65636;SDS011;52327;42.622;23.316;2022-07-01T10:38:34;2.35;;;1.58;;
65636;SDS011;52327;42.622;23.316;2022-07-01T10:41:00;3.35;;;1.60;;
65636;SDS011;52327;42.622;23.316;2022-07-01T10:43:35;2.20;;;1.45;;
65636;SDS011;52327;42.622;23.316;2022-07-01T10:46:02;1.95;;;1.73;;
65636;SDS011;52327;42.622;23.316;2022-07-01T10:48:30;2.28;;;1.60;;
65636;SDS011;52327;42.622;23.316;2022-07-01T10:50:57;2.08;;;1.40;;
65636;SDS011;52327;42.622;23.316;2022-07-01T10:53:22;1.63;;;1.40;;
65636;SDS011;52327;42.622;23.316;2022-07-01T10:55:49;2.50;;;1.67;;
65636;SDS011;52327;42.622;23.316;2022-07-01T10:58:16;3.17;;;1.90;;
65636;SDS011;52327;42.622;23.316;2022-07-01T11:00:48;6.40;;;2.40;;
65636;SDS011;52327;42.622;23.316;2022-07-01T11:05:43;2.30;;;1.50;;
65636;SDS011;52327;42.622;23.316;2022-07-01T11:08:10;2.63;;;2.00;;
65636;SDS011;52327;42.622;23.316;2022-07-01T11:10:37;2.75;;;1.92;;
65636;SDS011;52327;42.622;23.316;2022-07-01T11:13:04;3.25;;;1.85;;
65636;SDS011;52327;42.622;23.316;2022-07-01T11:15:30;2.53;;;1.70;;
65636;SDS011;52327;42.622;23.316;2022-07-01T11:17:56;2.10;;;1.63;;
65636;SDS011;52327;42.622;23.316;2022-07-01T11:20:23;1.75;;;1.65;;
65636;SDS011;52327;42.622;23.316;2022-07-01T11:22:50;2.63;;;1.95;;
65636;SDS011;52327;42.622;23.316;2022-07-01T11:25:17;2.50;;;2.17;;
65636;SDS011;52327;42.622;23.316;2022-07-01T11:27:48;2.75;;;1.95;;
65636;SDS011;52327;42.622;23.316;2022-07-01T11:30:15;6.93;;;1.88;;
65636;SDS011;52327;42.622;23.316;2022-07-01T11:32:42;2.08;;;1.70;;
65636;SDS011;52327;42.622;23.316;2022-07-01T11:35:14;1.77;;;1.67;;
65636;SDS011;52327;42.622;23.316;2022-07-01T11:41:10;2.05;;;1.60;;
65636;SDS011;52327;42.622;23.316;2022-07-01T11:43:44;2.20;;;1.65;;
65636;SDS011;52327;42.622;23.316;2022-07-01T11:46:09;2.20;;;1.80;;
65636;SDS011;52327;42.622;23.316;2022-07-01T11:51:09;2.90;;;1.77;;
65636;SDS011;52327;42.622;23.316;2022-07-01T11:53:35;2.15;;;1.83;;
65636;SDS011;52327;42.622;23.316;2022-07-01T11:56:02;1.92;;;1.50;;
65636;SDS011;52327;42.622;23.316;2022-07-01T11:58:39;3.28;;;1.90;;
65636;SDS011;52327;42.622;23.316;2022-07-01T12:01:09;1.92;;;1.60;;
65636;SDS011;52327;42.622;23.316;2022-07-01T12:03:35;1.60;;;1.48;;
65636;SDS011;52327;42.622;23.316;2022-07-01T12:06:02;1.60;;;1.50;;
65636;SDS011;52327;42.622;23.316;2022-07-01T12:08:28;1.73;;;1.55;;
65636;SDS011;52327;42.622;23.316;2022-07-01T12:10:54;2.30;;;1.75;;
65636;SDS011;52327;42.622;23.316;2022-07-01T12:13:23;2.85;;;1.70;;
65636;SDS011;52327;42.622;23.316;2022-07-01T12:15:49;2.25;;;1.63;;
65636;SDS011;52327;42.622;23.316;2022-07-01T12:18:15;1.75;;;1.50;;
65636;SDS011;52327;42.622;23.316;2022-07-01T12:20:54;1.70;;;1.40;;
65636;SDS011;52327;42.622;23.316;2022-07-01T12:23:19;5.03;;;1.70;;
65636;SDS011;52327;42.622;23.316;2022-07-01T12:25:51;4.32;;;1.90;;
65636;SDS011;52327;42.622;23.316;2022-07-01T12:28:27;2.97;;;1.52;;
65636;SDS011;52327;42.622;23.316;2022-07-01T12:31:04;9.02;;;3.50;;
65636;SDS011;52327;42.622;23.316;2022-07-01T12:33:37;5.13;;;2.10;;
65636;SDS011;52327;42.622;23.316;2022-07-01T12:36:04;1.50;;;1.33;;
65636;SDS011;52327;42.622;23.316;2022-07-01T12:38:31;1.40;;;1.30;;
65636;SDS011;52327;42.622;23.316;2022-07-01T12:40:58;5.82;;;1.80;;
65636;SDS011;52327;42.622;23.316;2022-07-01T12:43:24;1.73;;;1.25;;
65636;SDS011;52327;42.622;23.316;2022-07-01T12:45:57;2.03;;;1.60;;
65636;SDS011;52327;42.622;23.316;2022-07-01T12:48:23;1.90;;;1.40;;
65636;SDS011;52327;42.622;23.316;2022-07-01T12:50:51;2.25;;;1.80;;
65636;SDS011;52327;42.622;23.316;2022-07-01T12:53:19;1.40;;;1.30;;
65636;SDS011;52327;42.622;23.316;2022-07-01T12:55:52;1.52;;;1.40;;
65636;SDS011;52327;42.622;23.316;2022-07-01T12:58:22;3.67;;;1.52;;
65636;SDS011;52327;42.622;23.316;2022-07-01T13:00:51;3.53;;;1.92;;
65636;SDS011;52327;42.622;23.316;2022-07-01T13:03:21;2.63;;;1.50;;
65636;SDS011;52327;42.622;23.316;2022-07-01T13:05:50;2.00;;;1.75;;
65636;SDS011;52327;42.622;23.316;2022-07-01T13:08:17;2.17;;;1.63;;
65636;SDS011;52327;42.622;23.316;2022-07-01T13:10:44;1.38;;;1.20;;
65636;SDS011;52327;42.622;23.316;2022-07-01T13:13:09;1.50;;;1.40;;
65636;SDS011;52327;42.622;23.316;2022-07-01T13:15:35;7.88;;;2.25;;
65636;SDS011;52327;42.622;23.316;2022-07-01T13:18:01;3.58;;;1.90;;
65636;SDS011;52327;42.622;23.316;2022-07-01T13:20:28;3.35;;;1.80;;
65636;SDS011;52327;42.622;23.316;2022-07-01T13:22:53;4.28;;;1.88;;
65636;SDS011;52327;42.622;23.316;2022-07-01T13:25:19;3.55;;;1.95;;
65636;SDS011;52327;42.622;23.316;2022-07-01T13:27:45;2.83;;;1.95;;
65636;SDS011;52327;42.622;23.316;2022-07-01T13:30:11;2.60;;;1.80;;
65636;SDS011;52327;42.622;23.316;2022-07-01T13:32:37;2.85;;;1.85;;
65636;SDS011;52327;42.622;23.316;2022-07-01T13:35:04;2.28;;;1.77;;
65636;SDS011;52327;42.622;23.316;2022-07-01T13:37:31;2.78;;;2.00;;
65636;SDS011;52327;42.622;23.316;2022-07-01T13:39:56;3.50;;;2.15;;
65636;SDS011;52327;42.622;23.316;2022-07-01T13:42:22;2.58;;;1.98;;
65636;SDS011;52327;42.622;23.316;2022-07-01T13:44:50;2.85;;;1.98;;
65636;SDS011;52327;42.622;23.316;2022-07-01T13:47:16;2.00;;;1.70;;
65636;SDS011;52327;42.622;23.316;2022-07-01T13:49:42;2.17;;;1.98;;
65636;SDS011;52327;42.622;23.316;2022-07-01T13:52:08;2.20;;;2.00;;
65636;SDS011;52327;42.622;23.316;2022-07-01T13:54:34;3.42;;;2.20;;
65636;SDS011;52327;42.622;23.316;2022-07-01T13:56:59;2.67;;;1.83;;
65636;SDS011;52327;42.622;23.316;2022-07-01T13:59:25;3.58;;;2.10;;
65636;SDS011;52327;42.622;23.316;2022-07-01T14:01:50;3.40;;;1.90;;
65636;SDS011;52327;42.622;23.316;2022-07-01T14:04:16;2.25;;;1.92;;
65636;SDS011;52327;42.622;23.316;2022-07-01T14:06:41;6.32;;;2.50;;
65636;SDS011;52327;42.622;23.316;2022-07-01T14:09:06;2.30;;;1.90;;
65636;SDS011;52327;42.622;23.316;2022-07-01T14:11:32;1.98;;;1.70;;
65636;SDS011;52327;42.622;23.316;2022-07-01T14:13:57;5.68;;;2.95;;
65636;SDS011;52327;42.622;23.316;2022-07-01T14:16:23;2.20;;;1.95;;
65636;SDS011;52327;42.622;23.316;2022-07-01T14:18:48;4.80;;;2.30;;
65636;SDS011;52327;42.622;23.316;2022-07-01T14:21:17;2.20;;;2.00;;
65636;SDS011;52327;42.622;23.316;2022-07-01T14:23:42;3.05;;;2.10;;
65636;SDS011;52327;42.622;23.316;2022-07-01T14:26:08;3.05;;;2.05;;
65636;SDS011;52327;42.622;23.316;2022-07-01T14:28:33;2.95;;;1.80;;
65636;SDS011;52327;42.622;23.316;2022-07-01T14:30:59;2.67;;;1.80;;
65636;SDS011;52327;42.622;23.316;2022-07-01T14:33:24;2.47;;;2.00;;
65636;SDS011;52327;42.622;23.316;2022-07-01T14:35:50;2.10;;;1.85;;
65636;SDS011;52327;42.622;23.316;2022-07-01T14:38:16;16.42;;;3.50;;
65636;SDS011;52327;42.622;23.316;2022-07-01T14:40:42;2.22;;;1.88;;
65636;SDS011;52327;42.622;23.316;2022-07-01T14:43:07;2.40;;;2.05;;
65636;SDS011;52327;42.622;23.316;2022-07-01T14:45:36;2.33;;;1.70;;
65636;SDS011;52327;42.622;23.316;2022-07-01T14:48:02;7.20;;;2.40;;
65636;SDS011;52327;42.622;23.316;2022-07-01T14:50:27;3.75;;;2.00;;
65636;SDS011;52327;42.622;23.316;2022-07-01T14:52:53;2.15;;;1.80;;
65636;SDS011;52327;42.622;23.316;2022-07-01T14:55:18;2.90;;;2.40;;